createdAt,value
2023-01-13T00:00:05.311Z,8.3
2023-01-13T00:02:02.983Z,8.3
2023-01-13T00:04:04.501Z,8.3
2023-01-13T00:06:03.973Z,8.3
2023-01-13T00:08:04.509Z,8.3
2023-01-13T00:10:02.323Z,8.3
2023-01-13T00:12:03.107Z,8.3
2023-01-13T00:14:02.872Z,8.3
2023-01-13T00:16:05.094Z,8.3
2023-01-13T00:18:02.897Z,8.3
2023-01-13T00:20:02.525Z,8.3
2023-01-13T00:22:02.986Z,8.3
2023-01-13T00:24:03.042Z,8.3
2023-01-13T00:26:05.560Z,8.4
2023-01-13T00:28:02.344Z,8.3
2023-01-13T00:30:02.434Z,8.3
2023-01-13T00:32:02.510Z,8.3
2023-01-13T00:34:02.679Z,8.4
2023-01-13T00:36:05.359Z,8.4
2023-01-13T00:38:02.327Z,8.4
2023-01-13T00:40:02.940Z,8.4
2023-01-13T00:42:11.779Z,8.4
2023-01-13T00:44:02.498Z,8.4
2023-01-13T00:46:05.201Z,8.3
2023-01-13T00:48:02.645Z,8.3
2023-01-13T00:50:02.976Z,8.3
2023-01-13T00:52:02.290Z,8.3
2023-01-13T00:54:02.354Z,8.3
2023-01-13T00:56:04.662Z,8.4
2023-01-13T00:58:03.255Z,8.3
2023-01-13T01:00:04.446Z,8.3
2023-01-13T01:02:02.404Z,8.3
2023-01-13T01:04:02.925Z,8.3
2023-01-13T01:06:06.324Z,8.4
2023-01-13T01:08:02.709Z,8.4
2023-01-13T01:10:03.637Z,8.3
2023-01-13T01:12:02.564Z,8.3
2023-01-13T01:14:03.869Z,8.4
2023-01-13T01:16:06.638Z,8.4
2023-01-13T01:18:02.553Z,8.4
2023-01-13T01:20:02.779Z,8.4
2023-01-13T01:22:02.314Z,8.3
2023-01-13T01:24:04.238Z,8.3
2023-01-13T01:26:04.601Z,8.3
2023-01-13T01:28:02.385Z,8.3
2023-01-13T01:30:02.554Z,8.3
2023-01-13T01:32:03.015Z,8.3
2023-01-13T01:34:02.861Z,8.3
2023-01-13T01:36:03.930Z,8.4
2023-01-13T01:38:02.935Z,8.4
2023-01-13T01:40:02.386Z,8.4
2023-01-13T01:42:12.323Z,8.4
2023-01-13T01:44:07.520Z,8.4
2023-01-13T01:46:02.523Z,8.4
2023-01-13T01:48:04.910Z,8.5
2023-01-13T01:50:04.228Z,8.5
2023-01-13T01:52:08.128Z,8.5
2023-01-13T01:54:06.156Z,8.5
2023-01-13T01:56:03.481Z,8.4
2023-01-13T01:58:09.960Z,8.4
2023-01-13T02:00:04.265Z,8.4
2023-01-13T02:02:03.121Z,8.4
2023-01-13T02:04:10.012Z,8.4
2023-01-13T02:06:03.111Z,8.4
2023-01-13T02:08:04.081Z,8.4
2023-01-13T02:10:06.234Z,8.4
2023-01-13T02:12:11.962Z,8.4
2023-01-13T02:14:02.624Z,8.4
2023-01-13T02:16:13.110Z,8.3
2023-01-13T02:18:18.526Z,8.3
2023-01-13T02:20:21.360Z,8.3
2023-01-13T02:22:19.254Z,8.3
2023-01-13T02:24:30.816Z,8.3
2023-01-13T02:26:21.585Z,8.3
2023-01-13T02:28:18.786Z,8.3
2023-01-13T02:30:18.992Z,8.3
2023-01-13T02:32:09.632Z,8.3
2023-01-13T02:34:10.512Z,8.3
2023-01-13T02:36:10.869Z,8.3
2023-01-13T02:38:04.479Z,8.3
2023-01-13T02:40:08.264Z,8.3
2023-01-13T02:42:18.335Z,8.3
2023-01-13T02:44:07.781Z,8.4
2023-01-13T02:46:08.988Z,8.4
2023-01-13T02:48:07.581Z,8.4
2023-01-13T02:50:05.556Z,8.5
2023-01-13T02:52:09.877Z,8.6
2023-01-13T02:54:08.271Z,8.6
2023-01-13T02:56:05.068Z,8.6
2023-01-13T02:58:05.355Z,8.6
2023-01-13T03:00:06.247Z,8.6
2023-01-13T03:02:03.334Z,8.6
2023-01-13T03:04:11.471Z,8.6
2023-01-13T03:06:13.956Z,8.6
2023-01-13T03:08:17.426Z,8.6
2023-01-13T03:10:11.255Z,8.6
2023-01-13T03:12:14.100Z,8.6
2023-01-13T03:14:11.025Z,8.6
2023-01-13T03:16:13.448Z,8.6
2023-01-13T03:18:11.492Z,8.6
2023-01-13T03:20:07.052Z,8.5
2023-01-13T03:22:15.547Z,8.5
2023-01-13T03:24:09.822Z,8.5
2023-01-13T03:26:09.749Z,8.5
2023-01-13T03:28:06.020Z,8.4
2023-01-13T03:30:07.443Z,8.4
2023-01-13T03:32:08.817Z,8.4
2023-01-13T03:34:07.961Z,8.4
2023-01-13T03:36:08.070Z,8.4
2023-01-13T03:38:09.404Z,8.4
2023-01-13T03:40:09.140Z,8.4
2023-01-13T03:42:05.892Z,8.3
2023-01-13T03:44:21.433Z,8.4
2023-01-13T03:46:09.156Z,8.4
2023-01-13T03:48:08.751Z,8.4
2023-01-13T03:50:08.331Z,8.4
2023-01-13T03:52:07.340Z,8.4
2023-01-13T03:54:08.883Z,8.4
2023-01-13T03:56:08.257Z,8.4
2023-01-13T03:58:13.986Z,8.4
2023-01-13T04:00:09.233Z,8.4
2023-01-13T04:02:08.822Z,8.4
2023-01-13T04:04:07.733Z,8.4
2023-01-13T04:06:12.749Z,8.4
2023-01-13T04:08:11.687Z,8.4
2023-01-13T04:10:06.209Z,8.4
2023-01-13T04:12:08.923Z,8.4
2023-01-13T04:14:03.919Z,8.4
2023-01-13T04:16:05.337Z,8.4
2023-01-13T04:18:09.398Z,8.4
2023-01-13T04:20:02.309Z,8.5
2023-01-13T04:22:02.912Z,8.5
2023-01-13T04:24:02.958Z,8.4
2023-01-13T04:26:02.332Z,8.5
2023-01-13T04:28:02.992Z,8.5
2023-01-13T04:30:03.778Z,8.6
2023-01-13T04:32:02.317Z,8.6
2023-01-13T04:34:02.916Z,8.6
2023-01-13T04:36:02.372Z,8.6
2023-01-13T04:38:03.821Z,8.6
2023-01-13T04:40:02.906Z,8.6
2023-01-13T04:42:02.691Z,8.6
2023-01-13T04:44:02.311Z,8.6
2023-01-13T04:46:03.078Z,8.6
2023-01-13T04:48:02.961Z,8.6
2023-01-13T04:50:02.343Z,8.6
2023-01-13T04:52:03.461Z,8.6
2023-01-13T04:54:02.546Z,8.5
2023-01-13T04:56:02.354Z,8.6
2023-01-13T04:58:04.707Z,8.5
2023-01-13T05:00:03.387Z,8.5
2023-01-13T05:02:02.956Z,8.5
2023-01-13T05:04:02.785Z,8.5
2023-01-13T05:06:02.549Z,8.4
2023-01-13T05:08:02.347Z,8.4
2023-01-13T05:10:02.721Z,8.4
2023-01-13T05:12:11.880Z,8.4
2023-01-13T05:14:11.767Z,8.4
2023-01-13T05:16:11.814Z,8.4
2023-01-13T05:18:03.122Z,8.4
2023-01-13T05:20:03.095Z,8.4
2023-01-13T05:22:13.148Z,8.4
2023-01-13T05:24:11.784Z,8.4
2023-01-13T05:26:03.021Z,8.4
2023-01-13T05:28:02.347Z,8.4
2023-01-13T05:30:02.653Z,8.4
2023-01-13T05:32:04.112Z,8.4
2023-01-13T05:34:03.006Z,8.4
2023-01-13T05:36:03.027Z,8.5
2023-01-13T05:38:02.295Z,8.6
2023-01-13T05:40:11.795Z,8.6
2023-01-13T05:42:11.768Z,8.6
2023-01-13T05:44:02.343Z,8.6
2023-01-13T05:46:06.522Z,8.6
2023-01-13T05:48:02.363Z,8.6
2023-01-13T05:50:03.482Z,8.6
2023-01-13T05:52:03.055Z,8.6
2023-01-13T05:54:02.584Z,8.7
2023-01-13T05:56:05.921Z,8.7
2023-01-13T05:58:02.493Z,8.7
2023-01-13T06:00:02.643Z,8.7
2023-01-13T06:02:02.311Z,8.7
2023-01-13T06:04:02.456Z,8.8
2023-01-13T06:06:03.663Z,8.8
2023-01-13T06:08:03.665Z,8.8
2023-01-13T06:10:02.584Z,8.9
2023-01-13T06:12:02.344Z,8.9
2023-01-13T06:14:02.298Z,8.9
2023-01-13T06:16:02.544Z,8.9
2023-01-13T06:18:04.798Z,8.9
2023-01-13T06:20:02.339Z,8.9
2023-01-13T06:22:11.456Z,8.9
2023-01-13T06:24:02.370Z,8.9
2023-01-13T06:26:10.092Z,8.9
2023-01-13T06:28:03.101Z,8.9
2023-01-13T06:30:02.627Z,8.9
2023-01-13T06:32:05.935Z,8.9
2023-01-13T06:34:08.391Z,8.9
2023-01-13T06:36:07.718Z,8.9
2023-01-13T06:38:05.770Z,8.9
2023-01-13T06:40:06.392Z,8.9
2023-01-13T06:42:13.507Z,8.9
2023-01-13T06:44:02.920Z,8.8
2023-01-13T06:46:02.941Z,8.8
2023-01-13T06:48:02.371Z,8.8
2023-01-13T06:50:02.480Z,8.8
2023-01-13T06:52:02.837Z,8.8
2023-01-13T06:54:03.000Z,8.8
2023-01-13T06:56:02.978Z,8.8
2023-01-13T06:58:03.234Z,8.8
2023-01-13T07:00:02.634Z,8.8
2023-01-13T07:02:03.920Z,8.8
2023-01-13T07:04:02.420Z,8.8
2023-01-13T07:06:02.475Z,8.8
2023-01-13T07:08:03.699Z,8.7
2023-01-13T07:10:04.015Z,8.7
2023-01-13T07:12:02.360Z,8.7
2023-01-13T07:14:12.535Z,8.7
2023-01-13T07:16:05.223Z,8.7
2023-01-13T07:18:03.533Z,8.7
2023-01-13T07:20:02.339Z,8.7
2023-01-13T07:22:02.577Z,8.7
2023-01-13T07:24:02.500Z,8.7
2023-01-13T07:26:02.797Z,8.7
2023-01-13T07:28:02.894Z,8.7
2023-01-13T07:30:02.358Z,8.7
2023-01-13T07:32:02.428Z,8.7
2023-01-13T07:34:03.571Z,8.7
2023-01-13T07:36:05.227Z,8.7
2023-01-13T07:38:02.379Z,8.7
2023-01-13T07:40:03.337Z,8.7
2023-01-13T07:42:11.767Z,8.7
2023-01-13T07:44:05.761Z,8.6
2023-01-13T07:46:04.966Z,8.6
2023-01-13T07:48:03.117Z,8.6
2023-01-13T07:50:02.895Z,8.7
2023-01-13T07:52:04.144Z,8.7
2023-01-13T07:54:02.355Z,8.7
2023-01-13T07:56:06.282Z,8.6
2023-01-13T07:58:02.512Z,8.6
2023-01-13T08:00:03.028Z,8.6
2023-01-13T08:02:03.170Z,8.6
2023-01-13T08:04:02.399Z,8.6
2023-01-13T08:06:03.680Z,8.6
2023-01-13T08:08:03.057Z,8.6
2023-01-13T08:10:03.685Z,8.6
2023-01-13T08:12:12.338Z,8.6
2023-01-13T08:14:02.313Z,8.6
2023-01-13T08:16:05.601Z,8.6
2023-01-13T08:18:02.374Z,8.6
2023-01-13T08:20:02.379Z,8.6
2023-01-13T08:22:03.019Z,8.6
2023-01-13T08:24:03.039Z,8.6
2023-01-13T08:26:04.587Z,8.6
2023-01-13T08:28:02.438Z,8.6
2023-01-13T08:30:03.132Z,8.6
2023-01-13T08:32:03.138Z,8.6
2023-01-13T08:34:02.988Z,8.6
2023-01-13T08:36:04.260Z,8.6
2023-01-13T08:38:02.933Z,8.6
2023-01-13T08:40:03.089Z,8.6
2023-01-13T08:42:02.350Z,8.6
2023-01-13T08:44:02.808Z,8.6
2023-01-13T08:46:04.372Z,8.6
2023-01-13T08:48:02.543Z,8.6
2023-01-13T08:50:03.348Z,8.6
2023-01-13T08:52:02.561Z,8.6
2023-01-13T08:54:03.710Z,8.6
2023-01-13T08:56:02.366Z,8.6
2023-01-13T08:58:14.627Z,8.6
2023-01-13T09:00:04.687Z,8.6
2023-01-13T09:02:03.952Z,8.6
2023-01-13T09:04:02.439Z,8.6
2023-01-13T09:06:02.705Z,8.6
2023-01-13T09:08:02.327Z,8.6
2023-01-13T09:10:02.750Z,8.6
2023-01-13T09:12:12.719Z,8.6
2023-01-13T09:14:03.431Z,8.6
2023-01-13T09:16:02.375Z,8.6
2023-01-13T09:18:02.579Z,8.6
2023-01-13T09:20:02.310Z,8.6
2023-01-13T09:22:02.723Z,8.6
2023-01-13T09:24:02.327Z,8.6
2023-01-13T09:26:02.337Z,8.6
2023-01-13T09:28:04.728Z,8.6
2023-01-13T09:30:03.019Z,8.6
2023-01-13T09:32:03.168Z,8.6
2023-01-13T09:34:13.565Z,8.6
2023-01-13T09:36:02.407Z,8.6
2023-01-13T09:38:02.968Z,8.6
2023-01-13T09:40:03.901Z,8.7
2023-01-13T09:42:22.577Z,8.7
2023-01-13T09:44:04.668Z,8.7
2023-01-13T09:46:16.987Z,8.7
2023-01-13T09:48:06.539Z,8.7
2023-01-13T09:50:15.880Z,8.7
2023-01-13T09:52:07.963Z,8.7
2023-01-13T09:54:11.528Z,8.7
2023-01-13T09:56:02.488Z,8.7
2023-01-13T09:58:10.585Z,8.7
2023-01-13T10:00:06.418Z,8.7
2023-01-13T10:02:15.085Z,8.7
2023-01-13T10:04:04.911Z,8.7
2023-01-13T10:06:13.623Z,8.7
2023-01-13T10:08:07.802Z,8.7
2023-01-13T10:10:08.443Z,8.7
2023-01-13T10:12:12.747Z,8.7
2023-01-13T10:14:10.184Z,8.7
2023-01-13T10:16:18.565Z,8.7
2023-01-13T10:18:13.403Z,8.7
2023-01-13T10:20:14.771Z,8.7
2023-01-13T10:22:19.070Z,8.7
2023-01-13T10:24:07.058Z,8.7
2023-01-13T10:26:11.409Z,8.7
2023-01-13T10:28:08.807Z,8.7
2023-01-13T10:30:13.137Z,8.7
2023-01-13T10:32:02.351Z,8.7
2023-01-13T10:34:03.972Z,8.8
2023-01-13T10:36:12.588Z,8.7
2023-01-13T10:38:02.318Z,8.8
2023-01-13T10:40:06.519Z,8.8
2023-01-13T10:42:04.889Z,8.7
2023-01-13T10:44:05.941Z,8.7
2023-01-13T10:46:05.936Z,8.7
2023-01-13T10:48:13.155Z,8.7
2023-01-13T10:50:15.696Z,8.7
2023-01-13T10:52:04.483Z,8.7
2023-01-13T10:54:13.368Z,8.7
2023-01-13T10:56:05.253Z,8.7
2023-01-13T10:58:13.408Z,8.7
2023-01-13T11:00:05.929Z,8.7
2023-01-13T11:02:19.812Z,8.7
2023-01-13T11:04:12.138Z,8.7
2023-01-13T11:06:03.258Z,8.8
2023-01-13T11:08:02.395Z,8.8
2023-01-13T11:10:10.564Z,8.8
2023-01-13T11:12:03.009Z,8.8
2023-01-13T11:14:16.035Z,8.8
2023-01-13T11:16:10.898Z,8.8
2023-01-13T11:18:10.488Z,8.8
2023-01-13T11:20:14.942Z,8.8
2023-01-13T11:22:07.400Z,8.8
2023-01-13T11:24:06.873Z,8.8
2023-01-13T11:26:08.913Z,8.8
2023-01-13T11:28:15.435Z,8.8
2023-01-13T11:30:10.704Z,8.8
2023-01-13T11:32:12.345Z,8.8
2023-01-13T11:34:08.306Z,8.8
2023-01-13T11:36:11.465Z,8.8
2023-01-13T11:38:12.611Z,8.9
2023-01-13T11:40:06.604Z,8.8
2023-01-13T11:42:22.376Z,8.8
2023-01-13T11:44:14.686Z,8.8
2023-01-13T11:46:05.670Z,8.8
2023-01-13T11:48:04.274Z,8.8
2023-01-13T11:50:04.554Z,8.8
2023-01-13T11:52:11.399Z,8.8
2023-01-13T11:54:16.711Z,8.8
2023-01-13T11:56:19.608Z,8.8
2023-01-13T11:58:19.845Z,8.8
2023-01-13T12:00:17.776Z,8.8
2023-01-13T12:02:18.973Z,8.8
2023-01-13T12:04:20.840Z,8.8
2023-01-13T12:06:12.627Z,8.8
2023-01-13T12:08:17.711Z,8.9
2023-01-13T12:10:13.552Z,8.9
2023-01-13T12:12:22.552Z,8.9
2023-01-13T12:14:17.914Z,8.9
2023-01-13T12:16:09.522Z,8.9
2023-01-13T12:18:20.479Z,8.9
2023-01-13T12:20:17.494Z,8.9
2023-01-13T12:22:12.437Z,8.9
2023-01-13T12:24:13.029Z,8.9
2023-01-13T12:26:07.864Z,8.9
2023-01-13T12:28:10.808Z,8.9
2023-01-13T12:30:13.440Z,8.9
2023-01-13T12:32:05.597Z,8.9
2023-01-13T12:34:18.672Z,8.9
2023-01-13T12:36:15.714Z,8.9
2023-01-13T12:38:08.829Z,8.9
2023-01-13T12:40:19.064Z,8.9
2023-01-13T12:42:18.426Z,8.9
2023-01-13T12:44:13.499Z,8.9
2023-01-13T12:46:21.414Z,8.9
2023-01-13T12:48:02.902Z,8.9
2023-01-13T12:50:21.697Z,8.9
2023-01-13T12:52:15.240Z,8.9
2023-01-13T12:54:05.456Z,8.9
2023-01-13T12:56:21.367Z,8.9
2023-01-13T12:58:16.009Z,8.9
2023-01-13T13:00:14.797Z,8.9
2023-01-13T13:02:21.719Z,8.9
2023-01-13T13:04:11.431Z,8.9
2023-01-13T13:06:10.145Z,8.9
2023-01-13T13:08:14.147Z,8.9
2023-01-13T13:10:07.920Z,8.9
2023-01-13T13:12:30.802Z,8.9
2023-01-13T13:14:05.799Z,8.8
2023-01-13T13:16:21.352Z,8.9
2023-01-13T13:18:13.490Z,8.9
2023-01-13T13:20:02.916Z,8.9
2023-01-13T13:22:20.231Z,8.9
2023-01-13T13:24:05.345Z,8.9
2023-01-13T13:26:16.748Z,8.9
2023-01-13T13:28:14.363Z,8.9
2023-01-13T13:30:09.544Z,8.9
2023-01-13T13:32:17.879Z,8.9
2023-01-13T13:34:15.748Z,8.9
2023-01-13T13:36:11.902Z,8.9
2023-01-13T13:38:22.433Z,8.9
2023-01-13T13:40:18.156Z,8.9
2023-01-13T13:42:20.203Z,8.9
2023-01-13T13:44:21.192Z,8.9
2023-01-13T13:46:11.833Z,8.9
2023-01-13T13:48:19.642Z,8.9
2023-01-13T13:50:09.710Z,8.9
2023-01-13T13:52:10.469Z,8.9
2023-01-13T13:54:03.134Z,8.9
2023-01-13T13:56:05.376Z,8.9
2023-01-13T13:58:02.754Z,8.9
2023-01-13T14:00:19.847Z,8.9
2023-01-13T14:02:04.520Z,8.9
2023-01-13T14:04:06.964Z,8.9
2023-01-13T14:06:05.360Z,8.9
2023-01-13T14:08:10.211Z,8.9
2023-01-13T14:10:02.915Z,8.9
2023-01-13T14:12:06.261Z,8.9
2023-01-13T14:14:03.760Z,8.9
2023-01-13T14:16:04.998Z,8.8
2023-01-13T14:18:06.298Z,8.8
2023-01-13T14:20:13.269Z,8.8
2023-01-13T14:22:05.122Z,8.8
2023-01-13T14:24:12.725Z,8.8
2023-01-13T14:26:06.803Z,8.8
2023-01-13T14:28:18.002Z,8.8
2023-01-13T14:30:03.619Z,8.8
2023-01-13T14:32:06.974Z,8.8
2023-01-13T14:34:31.346Z,8.8
2023-01-13T14:36:12.628Z,8.8
2023-01-13T14:38:04.013Z,8.8
2023-01-13T14:40:03.563Z,8.8
2023-01-13T14:42:03.094Z,8.8
2023-01-13T14:44:12.877Z,8.8
2023-01-13T14:46:02.712Z,8.8
2023-01-13T14:48:09.072Z,8.8
2023-01-13T14:50:06.204Z,8.8
2023-01-13T14:52:08.021Z,8.8
2023-01-13T14:54:02.315Z,8.8
2023-01-13T14:56:21.268Z,8.8
2023-01-13T14:58:21.504Z,8.8
2023-01-13T15:00:14.594Z,8.7
2023-01-13T15:02:12.861Z,8.8
2023-01-13T15:04:22.585Z,8.7
2023-01-13T15:06:02.587Z,8.7
2023-01-13T15:08:08.732Z,8.7
2023-01-13T15:10:05.818Z,8.7
2023-01-13T15:12:15.898Z,8.7
2023-01-13T15:14:09.470Z,8.7
2023-01-13T15:16:04.722Z,8.7
2023-01-13T15:18:11.647Z,8.7
2023-01-13T15:20:02.841Z,8.7
2023-01-13T15:22:02.428Z,8.7
2023-01-13T15:24:02.404Z,8.7
2023-01-13T15:26:03.514Z,8.7
2023-01-13T15:28:03.714Z,8.7
2023-01-13T15:30:02.280Z,8.7
2023-01-13T15:32:02.425Z,8.7
2023-01-13T15:34:02.280Z,8.7
2023-01-13T15:36:02.434Z,8.7
2023-01-13T15:38:09.341Z,8.7
2023-01-13T15:40:03.244Z,8.7
2023-01-13T15:42:11.777Z,8.7
2023-01-13T15:44:11.855Z,8.7
2023-01-13T15:46:13.681Z,8.7
2023-01-13T15:48:03.443Z,8.7
2023-01-13T15:50:02.261Z,8.7
2023-01-13T15:52:04.182Z,8.7
2023-01-13T15:54:02.328Z,8.7
2023-01-13T15:56:06.125Z,8.7
2023-01-13T15:58:02.303Z,8.7
2023-01-13T16:00:06.619Z,8.7
2023-01-13T16:02:02.266Z,8.7
2023-01-13T16:04:02.397Z,8.7
2023-01-13T16:06:02.822Z,8.6
2023-01-13T16:08:03.031Z,8.6
2023-01-13T16:10:04.482Z,8.6
2023-01-13T16:12:02.290Z,8.6
2023-01-13T16:14:02.858Z,8.6
2023-01-13T16:16:02.352Z,8.6
2023-01-13T16:18:05.289Z,8.6
2023-01-13T16:20:03.340Z,8.6
2023-01-13T16:22:02.240Z,8.6
2023-01-13T16:24:02.877Z,8.6
2023-01-13T16:26:05.662Z,8.6
2023-01-13T16:28:03.012Z,8.6
2023-01-13T16:30:03.070Z,8.6
2023-01-13T16:32:02.473Z,8.6
2023-01-13T16:34:04.361Z,8.6
2023-01-13T16:36:10.366Z,8.6
2023-01-13T16:38:02.419Z,8.6
2023-01-13T16:40:02.664Z,8.6
2023-01-13T16:42:02.716Z,8.6
2023-01-13T16:44:05.522Z,8.6
2023-01-13T16:46:05.196Z,8.6
2023-01-13T16:48:03.107Z,8.6
2023-01-13T16:50:02.466Z,8.6
2023-01-13T16:52:02.374Z,8.6
2023-01-13T16:54:02.721Z,8.6
2023-01-13T16:56:03.148Z,8.6
2023-01-13T16:58:02.938Z,8.6
2023-01-13T17:00:03.705Z,8.6
2023-01-13T17:02:04.536Z,8.6
2023-01-13T17:04:02.400Z,8.6
2023-01-13T17:06:03.296Z,8.6
2023-01-13T17:08:02.571Z,8.6
2023-01-13T17:10:02.446Z,8.6
2023-01-13T17:12:02.373Z,8.6
2023-01-13T17:14:18.004Z,8.6
2023-01-13T17:16:02.301Z,8.6
2023-01-13T17:18:04.077Z,8.6
2023-01-13T17:20:02.638Z,8.7
2023-01-13T17:22:02.294Z,8.7
2023-01-13T17:24:05.251Z,8.7
2023-01-13T17:26:02.321Z,8.7
2023-01-13T17:28:03.518Z,8.7
2023-01-13T17:30:02.819Z,8.7
2023-01-13T17:32:02.634Z,8.7
2023-01-13T17:34:03.947Z,8.7
2023-01-13T17:36:02.368Z,8.7
2023-01-13T17:38:02.904Z,8.7
2023-01-13T17:40:02.336Z,8.7
2023-01-13T17:42:03.789Z,8.7
2023-01-13T17:44:02.520Z,8.7
2023-01-13T17:46:02.416Z,8.7
2023-01-13T17:48:02.478Z,8.7
2023-01-13T17:50:04.360Z,8.7
2023-01-13T17:52:03.082Z,8.7
2023-01-13T17:54:02.843Z,8.7
2023-01-13T17:56:02.529Z,8.7
2023-01-13T17:58:02.334Z,8.7
2023-01-13T18:00:03.857Z,8.8
2023-01-13T18:02:02.754Z,8.8
2023-01-13T18:04:03.669Z,8.8
2023-01-13T18:06:04.151Z,8.8
2023-01-13T18:08:03.049Z,8.8
2023-01-13T18:10:02.981Z,8.8
2023-01-13T18:12:02.555Z,8.8
2023-01-13T18:14:03.150Z,8.8
2023-01-13T18:16:06.679Z,8.9
2023-01-13T18:18:02.618Z,8.9
2023-01-13T18:20:12.499Z,8.9
2023-01-13T18:22:11.816Z,8.9
2023-01-13T18:24:11.852Z,8.8
2023-01-13T18:26:25.588Z,8.9
2023-01-13T18:28:02.351Z,8.9
2023-01-13T18:30:05.097Z,8.9
2023-01-13T18:32:02.533Z,8.9
2023-01-13T18:34:02.914Z,8.9
2023-01-13T18:36:07.645Z,8.9
2023-01-13T18:38:02.358Z,8.9
2023-01-13T18:40:02.471Z,9.0
2023-01-13T18:42:12.939Z,9.1
2023-01-13T18:44:03.185Z,9.1
2023-01-13T18:46:02.356Z,9.1
2023-01-13T18:48:04.795Z,9.2
2023-01-13T18:50:02.882Z,9.2
2023-01-13T18:52:02.332Z,9.2
2023-01-13T18:54:03.217Z,9.2
2023-01-13T18:56:05.153Z,9.2
2023-01-13T18:58:03.001Z,9.3
2023-01-13T19:00:04.330Z,9.3
2023-01-13T19:02:08.668Z,9.3
2023-01-13T19:04:04.457Z,9.3
2023-01-13T19:06:04.358Z,9.3
2023-01-13T19:08:02.645Z,9.3
2023-01-13T19:10:03.861Z,9.4
2023-01-13T19:12:05.826Z,9.4
2023-01-13T19:14:03.671Z,9.4
2023-01-13T19:16:06.348Z,9.4
2023-01-13T19:18:02.567Z,9.4
2023-01-13T19:20:04.840Z,9.4
2023-01-13T19:22:02.321Z,9.4
2023-01-13T19:24:03.724Z,9.4
2023-01-13T19:26:05.397Z,9.5
2023-01-13T19:28:02.320Z,9.5
2023-01-13T19:30:04.005Z,9.5
2023-01-13T19:32:03.187Z,9.4
2023-01-13T19:34:02.318Z,9.4
2023-01-13T19:36:04.330Z,9.4
2023-01-13T19:38:02.341Z,9.4
2023-01-13T19:40:08.660Z,9.4
2023-01-13T19:42:12.983Z,9.4
2023-01-13T19:44:13.773Z,9.4
2023-01-13T19:46:02.428Z,9.4
2023-01-13T19:48:05.744Z,9.4
2023-01-13T19:50:06.122Z,9.4
2023-01-13T19:52:02.378Z,9.4
2023-01-13T19:54:02.561Z,9.4
2023-01-13T19:56:02.541Z,9.4
2023-01-13T19:58:03.527Z,9.5
2023-01-13T20:00:04.586Z,9.5
2023-01-13T20:02:04.218Z,9.5
2023-01-13T20:04:03.026Z,9.5
2023-01-13T20:06:07.259Z,9.5
2023-01-13T20:08:02.968Z,9.4
2023-01-13T20:10:02.968Z,9.4
2023-01-13T20:12:05.551Z,9.4
2023-01-13T20:14:03.480Z,9.4
2023-01-13T20:16:05.127Z,9.4
2023-01-13T20:18:02.736Z,9.3
2023-01-13T20:20:03.812Z,9.3
2023-01-13T20:22:02.908Z,9.3
2023-01-13T20:24:03.163Z,9.3
2023-01-13T20:26:02.337Z,9.3
2023-01-13T20:28:02.336Z,9.3
2023-01-13T20:30:02.719Z,9.3
2023-01-13T20:32:03.885Z,9.3
2023-01-13T20:34:02.930Z,9.3
2023-01-13T20:36:03.709Z,9.3
2023-01-13T20:38:02.324Z,9.3
2023-01-13T20:40:04.609Z,9.2
2023-01-13T20:42:11.963Z,9.3
2023-01-13T20:44:02.533Z,9.2
2023-01-13T20:46:04.442Z,9.2
2023-01-13T20:48:03.117Z,9.2
2023-01-13T20:50:03.310Z,9.3
2023-01-13T20:52:08.600Z,9.3
2023-01-13T20:54:02.548Z,9.3
2023-01-13T20:56:05.891Z,9.3
2023-01-13T20:58:02.303Z,9.3
2023-01-13T21:00:03.581Z,9.2
2023-01-13T21:02:02.767Z,9.3
2023-01-13T21:04:04.395Z,9.3
2023-01-13T21:06:02.607Z,9.2
2023-01-13T21:08:02.717Z,9.3
2023-01-13T21:10:02.336Z,9.3
2023-01-13T21:12:11.810Z,9.3
2023-01-13T21:14:11.736Z,9.3
2023-01-13T21:16:02.369Z,9.3
2023-01-13T21:18:11.960Z,9.3
2023-01-13T21:20:04.532Z,9.4
2023-01-13T21:22:03.620Z,9.4
2023-01-13T21:24:04.285Z,9.4
2023-01-13T21:26:02.323Z,9.3
2023-01-13T21:28:05.567Z,9.4
2023-01-13T21:30:03.735Z,9.4
2023-01-13T21:32:02.532Z,9.4
2023-01-13T21:34:02.496Z,9.4
2023-01-13T21:36:05.058Z,9.4
2023-01-13T21:38:02.328Z,9.4
2023-01-13T21:40:02.326Z,9.4
2023-01-13T21:42:12.344Z,9.4
2023-01-13T21:44:11.955Z,9.4
2023-01-13T21:46:11.824Z,9.3
2023-01-13T21:48:02.330Z,9.4
2023-01-13T21:50:04.794Z,9.4
2023-01-13T21:52:02.959Z,9.4
2023-01-13T21:54:03.207Z,9.3
2023-01-13T21:56:02.494Z,9.3
2023-01-13T21:58:09.472Z,9.3
2023-01-13T22:00:03.329Z,9.3
2023-01-13T22:02:24.681Z,9.3
2023-01-13T22:04:12.314Z,9.3
2023-01-13T22:06:02.643Z,9.3
2023-01-13T22:08:03.233Z,9.3
2023-01-13T22:10:03.046Z,9.3
2023-01-13T22:12:02.336Z,9.3
2023-01-13T22:14:06.580Z,9.3
2023-01-13T22:16:04.023Z,9.3
2023-01-13T22:18:05.037Z,9.3
2023-01-13T22:20:03.516Z,9.3
2023-01-13T22:22:02.300Z,9.3
2023-01-13T22:24:03.289Z,9.3
2023-01-13T22:26:03.869Z,9.3
2023-01-13T22:28:05.863Z,9.2
2023-01-13T22:30:02.700Z,9.2
2023-01-13T22:32:03.080Z,9.2
2023-01-13T22:34:03.182Z,9.2
2023-01-13T22:36:02.746Z,9.2
2023-01-13T22:38:03.195Z,9.2
2023-01-13T22:40:03.739Z,9.2
2023-01-13T22:42:04.061Z,9.2
2023-01-13T22:44:02.702Z,9.2
2023-01-13T22:46:03.817Z,9.2
2023-01-13T22:48:02.513Z,9.2
2023-01-13T22:50:03.136Z,9.2
2023-01-13T22:52:02.453Z,9.2
2023-01-13T22:54:02.613Z,9.2
2023-01-13T22:56:03.999Z,9.1
2023-01-13T22:58:02.341Z,9.2
2023-01-13T23:00:02.629Z,9.1
2023-01-13T23:02:02.633Z,9.1
2023-01-13T23:04:03.917Z,9.1
2023-01-13T23:06:02.656Z,9.1
2023-01-13T23:08:03.051Z,9.1
2023-01-13T23:10:02.564Z,9.1
2023-01-13T23:12:02.637Z,9.1
2023-01-13T23:14:06.369Z,9.1
2023-01-13T23:16:03.498Z,9.1
2023-01-13T23:18:02.647Z,9.1
2023-01-13T23:20:03.154Z,9.1
2023-01-13T23:22:04.005Z,9.1
2023-01-13T23:24:04.144Z,9.1
2023-01-13T23:26:03.577Z,9.1
2023-01-13T23:28:02.410Z,9.1
2023-01-13T23:30:02.964Z,9.1
2023-01-13T23:32:03.387Z,9.1
2023-01-13T23:34:03.072Z,9.1
2023-01-13T23:36:04.966Z,9.1
2023-01-13T23:38:02.470Z,9.1
2023-01-13T23:40:02.363Z,9.1
2023-01-13T23:42:02.606Z,9.0
2023-01-13T23:44:02.700Z,9.0
2023-01-13T23:46:03.352Z,9.0
2023-01-13T23:48:02.811Z,9.0
2023-01-13T23:50:02.545Z,9.0
2023-01-13T23:52:02.324Z,9.0
2023-01-13T23:54:03.141Z,9.0
2023-01-13T23:56:04.933Z,9.0
2023-01-13T23:58:02.495Z,9.0
